Murry, Missouri
Current Conditions -  °F | °C
As of 5:54 PM on Wednesday 28 Jan 2015 (Local Time) from KCOU Reporting Station
Clear Clear  
Wind Chill: 55°   Ceiling: Unl
Heat Index: 55°   Visibility: 10mi
Dew Point: 36°   Wind: 20mph
Humidity: 49%   Direction: 160°SSE
Pressure: 29.81"   Gusts: NA
Location:  39.0235°N, 92.2896°W
Report Text: KCOU 282354Z 16017KT 10SM CLR 13/02 A2981 RMK AO2 SLP098 T01280022 10156 20100 58023
Loading
Personal Weather Stations






























Interactive Weather Map New forecast layout! Learn more

10-Day Weather Forecast

Advertisements
Track Severe Weather on mobile